createdAt,value
2019-05-06T00:01:18.379Z,7.00
2019-05-06T00:03:54.009Z,7.10
2019-05-06T00:06:28.138Z,7.10
2019-05-06T00:09:03.904Z,7.10
2019-05-06T00:11:39.059Z,7.20
2019-05-06T00:14:14.125Z,7.20
2019-05-06T00:16:47.872Z,7.20
2019-05-06T00:19:22.099Z,7.20
2019-05-06T00:21:57.980Z,7.20
2019-05-06T00:24:49.252Z,7.20
2019-05-06T00:27:40.238Z,7.20
2019-05-06T00:30:14.905Z,7.20
2019-05-06T00:32:48.659Z,7.20
2019-05-06T00:35:23.443Z,7.20
2019-05-06T00:37:57.045Z,7.20
2019-05-06T00:40:36.925Z,7.20
2019-05-06T00:43:11.666Z,7.20
2019-05-06T00:45:45.445Z,7.20
2019-05-06T00:48:19.376Z,7.10
2019-05-06T00:50:54.144Z,7.10
2019-05-06T00:53:43.648Z,7.10
2019-05-06T00:56:16.936Z,7.00
2019-05-06T00:58:50.519Z,7.00
2019-05-06T01:01:29.400Z,7.00
2019-05-06T01:03:59.332Z,7.00
2019-05-06T01:06:34.447Z,6.90
2019-05-06T01:09:11.486Z,6.90
2019-05-06T01:11:46.719Z,6.90
2019-05-06T01:14:35.188Z,6.90
2019-05-06T01:17:10.553Z,6.90
2019-05-06T01:19:45.810Z,6.90
2019-05-06T01:22:19.606Z,6.80
2019-05-06T01:24:53.177Z,6.80
2019-05-06T01:27:26.758Z,6.80
2019-05-06T01:30:00.426Z,6.80
2019-05-06T01:32:34.580Z,6.80
2019-05-06T01:35:09.171Z,6.80
2019-05-06T01:37:45.327Z,6.80
2019-05-06T01:40:35.652Z,6.80
2019-05-06T01:43:16.414Z,6.80
2019-05-06T01:45:49.967Z,6.70
2019-05-06T01:48:41.290Z,6.70
2019-05-06T01:51:15.248Z,6.70
2019-05-06T01:53:49.427Z,6.70
2019-05-06T01:56:25.438Z,6.70
2019-05-06T01:58:59.018Z,6.60
2019-05-06T02:01:34.115Z,6.60
2019-05-06T02:04:08.076Z,6.60
2019-05-06T02:06:43.565Z,6.60
2019-05-06T02:09:18.539Z,6.60
2019-05-06T02:11:53.620Z,6.50
2019-05-06T02:14:28.548Z,6.50
2019-05-06T02:17:03.605Z,6.50
2019-05-06T02:19:37.877Z,6.40
2019-05-06T02:22:13.618Z,6.50
2019-05-06T02:24:54.836Z,6.40
2019-05-06T02:27:28.356Z,6.40
2019-05-06T02:30:06.340Z,6.40
2019-05-06T02:32:59.768Z,6.40
2019-05-06T02:35:46.730Z,6.40
2019-05-06T02:38:31.733Z,6.30
2019-05-06T02:41:03.484Z,6.30
2019-05-06T02:43:36.711Z,6.40
2019-05-06T02:46:12.874Z,6.30
2019-05-06T02:48:55.775Z,6.30
2019-05-06T02:51:29.323Z,6.30
2019-05-06T02:54:03.390Z,6.30
2019-05-06T02:56:37.166Z,6.20
2019-05-06T02:59:12.808Z,6.20
2019-05-06T03:01:47.002Z,6.20
2019-05-06T03:04:23.435Z,6.20
2019-05-06T03:06:57.239Z,6.30
2019-05-06T03:09:30.818Z,6.20
2019-05-06T03:12:04.366Z,6.20
2019-05-06T03:14:37.989Z,6.30
2019-05-06T03:17:13.970Z,6.30
2019-05-06T03:19:48.432Z,6.30
2019-05-06T03:22:29.605Z,6.30
2019-05-06T03:25:06.964Z,6.30
2019-05-06T03:27:40.014Z,6.30
2019-05-06T03:30:16.363Z,6.20
2019-05-06T03:33:40.127Z,6.30
2019-05-06T03:35:56.090Z,6.20
2019-05-06T03:38:16.009Z,6.20
2019-05-06T03:40:50.277Z,6.30
2019-05-06T03:43:23.829Z,6.30
2019-05-06T03:46:04.300Z,6.20
2019-05-06T03:48:47.926Z,6.30
2019-05-06T03:51:23.305Z,6.20
2019-05-06T03:53:58.556Z,6.10
2019-05-06T03:56:34.713Z,6.10
2019-05-06T04:02:05.525Z,6.10
2019-05-06T04:04:39.255Z,6.10
2019-05-06T04:07:13.902Z,6.10
2019-05-06T04:09:47.577Z,6.10
2019-05-06T04:12:23.517Z,6.10
2019-05-06T04:14:58.582Z,6.10
2019-05-06T04:17:48.636Z,6.10
2019-05-06T04:20:36.248Z,6.10
2019-05-06T04:23:09.559Z,6.20
2019-05-06T04:25:52.702Z,6.10
2019-05-06T04:28:36.902Z,6.10
2019-05-06T04:31:13.157Z,6.10
2019-05-06T04:34:03.553Z,6.10
2019-05-06T04:36:23.496Z,6.10
2019-05-06T04:38:56.933Z,6.10
2019-05-06T04:41:33.810Z,6.10
2019-05-06T04:44:06.234Z,6.10
2019-05-06T04:46:44.370Z,6.10
2019-05-06T04:49:18.230Z,6.10
2019-05-06T04:51:54.067Z,6.10
2019-05-06T04:54:27.482Z,6.10
2019-05-06T04:57:01.396Z,6.10
2019-05-06T04:59:36.979Z,6.00
2019-05-06T05:02:13.205Z,6.10
2019-05-06T05:04:46.016Z,6.10
2019-05-06T05:07:22.297Z,6.00
2019-05-06T05:09:56.637Z,6.00
2019-05-06T05:12:47.498Z,6.00
2019-05-06T05:15:35.748Z,6.00
2019-05-06T05:18:26.421Z,6.10
2019-05-06T05:21:02.084Z,6.00
2019-05-06T05:23:35.682Z,6.10
2019-05-06T05:26:09.414Z,6.10
2019-05-06T05:28:43.079Z,6.00
2019-05-06T05:31:16.630Z,6.10
2019-05-06T05:33:52.453Z,6.00
2019-05-06T05:36:26.343Z,6.10
2019-05-06T05:39:03.338Z,6.10
2019-05-06T05:41:37.575Z,6.10
2019-05-06T05:44:12.807Z,6.10
2019-05-06T05:46:46.989Z,6.20
2019-05-06T05:49:22.564Z,6.20
2019-05-06T05:51:55.790Z,6.20
2019-05-06T05:54:29.514Z,6.10
2019-05-06T05:57:03.243Z,6.10
2019-05-06T05:59:48.143Z,6.10
2019-05-06T06:02:22.978Z,6.20
2019-05-06T06:04:57.588Z,6.20
2019-05-06T06:07:32.784Z,6.20
2019-05-06T06:10:14.501Z,6.30
2019-05-06T06:12:48.216Z,6.30
2019-05-06T06:15:39.864Z,6.40
2019-05-06T06:18:14.199Z,6.40
2019-05-06T06:21:17.876Z,6.40
2019-05-06T06:23:42.450Z,6.50
2019-05-06T06:26:16.048Z,6.50
2019-05-06T06:28:52.137Z,6.60
2019-05-06T06:31:27.908Z,6.60
2019-05-06T06:34:05.975Z,6.60
2019-05-06T06:36:57.575Z,6.60
2019-05-06T06:39:34.664Z,6.70
2019-05-06T06:42:08.206Z,6.60
2019-05-06T06:44:45.502Z,6.70
2019-05-06T06:47:19.761Z,6.70
2019-05-06T06:49:54.192Z,6.70
2019-05-06T06:52:27.791Z,6.70
2019-05-06T06:55:02.365Z,6.80
2019-05-06T06:57:42.396Z,6.90
2019-05-06T07:00:24.266Z,7.00
2019-05-06T07:02:59.926Z,7.00
2019-05-06T07:05:38.040Z,7.10
2019-05-06T07:08:12.686Z,7.20
2019-05-06T07:10:46.580Z,7.20
2019-05-06T07:13:20.376Z,7.20
2019-05-06T07:15:54.040Z,7.20
2019-05-06T07:18:28.447Z,7.20
2019-05-06T07:21:07.655Z,7.30
2019-05-06T07:23:42.119Z,7.30
2019-05-06T07:26:17.246Z,7.40
2019-05-06T07:28:52.630Z,7.40
2019-05-06T07:31:26.851Z,7.40
2019-05-06T07:34:02.603Z,7.40
2019-05-06T07:36:36.277Z,7.50
2019-05-06T07:39:09.993Z,7.70
2019-05-06T07:41:46.162Z,7.50
2019-05-06T07:44:37.744Z,7.60
2019-05-06T07:47:33.824Z,7.60
2019-05-06T07:50:09.165Z,7.60
2019-05-06T07:52:45.105Z,7.70
2019-05-06T07:55:18.790Z,7.80
2019-05-06T07:57:52.601Z,7.90
2019-05-06T08:00:26.485Z,7.90
2019-05-06T08:03:02.543Z,8.00
2019-05-06T08:05:35.723Z,8.20
2019-05-06T08:08:09.290Z,8.20
2019-05-06T08:10:42.940Z,8.40
2019-05-06T08:13:16.592Z,8.30
2019-05-06T08:15:50.293Z,8.50
2019-05-06T08:18:25.550Z,8.40
2019-05-06T08:21:02.480Z,8.40
2019-05-06T08:23:42.844Z,8.20
2019-05-06T08:26:17.877Z,8.30
2019-05-06T08:28:52.732Z,8.40
2019-05-06T08:31:26.594Z,8.30
2019-05-06T08:34:00.125Z,8.40
2019-05-06T08:36:42.915Z,8.40
2019-05-06T08:39:17.528Z,8.40
2019-05-06T08:41:52.879Z,8.50
2019-05-06T08:44:27.062Z,8.40
2019-05-06T08:47:02.548Z,8.40
2019-05-06T08:49:37.993Z,8.60
2019-05-06T08:52:13.137Z,8.70
2019-05-06T08:54:48.319Z,8.80
2019-05-06T08:57:22.817Z,8.80
2019-05-06T08:59:56.499Z,9.00
2019-05-06T09:02:32.329Z,9.00
2019-05-06T09:05:07.958Z,9.20
2019-05-06T09:07:44.189Z,9.30
2019-05-06T09:10:17.866Z,9.40
2019-05-06T09:12:52.539Z,9.20
2019-05-06T09:15:26.225Z,9.40
2019-05-06T09:17:59.797Z,9.50
2019-05-06T09:20:33.377Z,9.60
2019-05-06T09:23:08.808Z,9.50
2019-05-06T09:25:43.255Z,9.70
2019-05-06T09:28:18.507Z,9.80
2019-05-06T09:30:53.615Z,9.80
2019-05-06T09:33:28.927Z,10.10
2019-05-06T09:36:03.311Z,10.10
2019-05-06T09:38:37.074Z,10.30
2019-05-06T09:41:12.418Z,10.40
2019-05-06T09:43:46.219Z,10.30
2019-05-06T09:46:19.911Z,10.40
2019-05-06T09:49:12.761Z,10.50
2019-05-06T09:51:46.520Z,10.30
2019-05-06T09:54:24.493Z,10.20
2019-05-06T09:57:08.588Z,10.20
2019-05-06T09:59:42.309Z,10.20
2019-05-06T10:02:16.258Z,10.20
2019-05-06T10:04:52.215Z,10.30
2019-05-06T10:07:26.300Z,10.30
2019-05-06T10:09:59.988Z,10.50
2019-05-06T10:12:33.699Z,10.30
2019-05-06T10:15:07.834Z,10.40
2019-05-06T10:17:42.918Z,10.40
2019-05-06T10:20:16.949Z,10.30
2019-05-06T10:22:52.448Z,10.30
2019-05-06T10:25:25.973Z,10.40
2019-05-06T10:28:02.721Z,10.30
2019-05-06T10:30:37.655Z,10.50
2019-05-06T10:33:15.890Z,10.50
2019-05-06T10:35:49.869Z,10.30
2019-05-06T10:38:44.636Z,10.30
2019-05-06T10:41:28.671Z,10.20
2019-05-06T10:44:24.628Z,10.30
2019-05-06T10:46:58.386Z,10.40
2019-05-06T10:49:33.691Z,10.50
2019-05-06T10:52:13.103Z,10.70
2019-05-06T10:54:46.712Z,10.90
2019-05-06T10:57:32.781Z,11.10
2019-05-06T11:00:08.729Z,11.10
2019-05-06T11:02:45.021Z,11.10
2019-05-06T11:05:19.120Z,11.20
2019-05-06T11:10:48.155Z,11.20
2019-05-06T11:13:24.184Z,11.00
2019-05-06T11:15:57.113Z,11.00
2019-05-06T11:18:33.147Z,11.20
2019-05-06T11:21:07.027Z,11.30
2019-05-06T11:23:41.875Z,11.30
2019-05-06T11:26:18.458Z,11.20
2019-05-06T11:28:56.456Z,11.20
2019-05-06T11:31:37.694Z,11.30
2019-05-06T11:34:23.436Z,11.30
2019-05-06T11:37:19.547Z,11.50
2019-05-06T11:39:53.286Z,11.40
2019-05-06T11:42:32.534Z,11.50
2019-05-06T11:45:03.657Z,11.30
2019-05-06T11:47:42.070Z,11.40
2019-05-06T11:50:16.446Z,11.50
2019-05-06T11:52:57.437Z,11.40
2019-05-06T11:55:38.065Z,11.70
2019-05-06T11:58:07.991Z,11.60
2019-05-06T12:00:44.495Z,11.50
2019-05-06T12:03:18.245Z,11.50
2019-05-06T12:05:52.636Z,11.50
2019-05-06T12:08:26.707Z,11.60
2019-05-06T12:11:02.776Z,11.40
2019-05-06T12:13:38.188Z,11.60
2019-05-06T12:16:14.052Z,11.50
2019-05-06T12:18:46.510Z,11.40
2019-05-06T12:21:20.024Z,11.40
2019-05-06T12:23:54.058Z,11.30
2019-05-06T12:26:27.962Z,11.40
2019-05-06T12:29:02.221Z,11.50
2019-05-06T12:31:36.996Z,11.40
2019-05-06T12:34:14.476Z,11.80
2019-05-06T12:36:52.779Z,11.80
2019-05-06T12:39:29.133Z,12.00
2019-05-06T12:42:16.787Z,12.00
2019-05-06T12:44:52.942Z,11.90
2019-05-06T12:47:47.708Z,11.90
2019-05-06T12:50:22.768Z,11.90
2019-05-06T12:52:57.885Z,11.60
2019-05-06T12:55:33.622Z,11.50
2019-05-06T12:58:07.319Z,11.40
2019-05-06T13:00:40.938Z,11.40
2019-05-06T13:03:15.071Z,11.50
2019-05-06T13:05:49.315Z,11.70
2019-05-06T13:11:05.078Z,11.60
2019-05-06T13:13:53.987Z,11.50
2019-05-06T13:16:15.451Z,11.60
2019-05-06T13:21:45.720Z,11.60
2019-05-06T13:24:27.409Z,11.60
2019-05-06T13:27:02.710Z,11.40
2019-05-06T13:29:36.496Z,11.70
2019-05-06T13:32:12.894Z,11.60
2019-05-06T13:34:46.598Z,11.80
2019-05-06T13:37:27.639Z,11.70
2019-05-06T13:40:02.334Z,11.70
2019-05-06T13:42:37.932Z,11.90
2019-05-06T13:45:13.289Z,11.90
2019-05-06T13:47:46.726Z,12.10
2019-05-06T13:50:28.037Z,12.10
2019-05-06T13:53:09.042Z,12.00
2019-05-06T13:55:42.729Z,12.10
2019-05-06T13:58:16.109Z,12.00
2019-05-06T14:00:51.998Z,12.00
2019-05-06T14:03:25.700Z,12.30
2019-05-06T14:05:59.340Z,12.60
2019-05-06T14:08:33.150Z,12.50
2019-05-06T14:11:06.734Z,12.40
2019-05-06T14:13:42.210Z,12.20
2019-05-06T14:16:16.095Z,12.20
2019-05-06T14:18:50.392Z,12.20
2019-05-06T14:21:24.328Z,12.10
2019-05-06T14:23:58.127Z,12.20
2019-05-06T14:26:36.576Z,12.20
2019-05-06T14:29:28.483Z,12.20
2019-05-06T14:32:02.590Z,12.10
2019-05-06T14:34:36.772Z,11.90
2019-05-06T14:37:10.546Z,11.80
2019-05-06T14:39:53.650Z,11.60
2019-05-06T14:42:22.236Z,11.70
2019-05-06T14:44:55.930Z,11.80
2019-05-06T14:47:32.777Z,11.80
2019-05-06T14:50:09.412Z,11.80
2019-05-06T14:52:43.119Z,11.70
2019-05-06T14:55:24.701Z,11.70
2019-05-06T14:58:04.568Z,11.70
2019-05-06T15:00:38.294Z,11.60
2019-05-06T15:03:12.916Z,11.50
2019-05-06T15:05:46.744Z,11.60
2019-05-06T15:08:22.459Z,11.50
2019-05-06T15:10:56.072Z,11.50
2019-05-06T15:13:31.996Z,11.50
2019-05-06T15:16:04.973Z,11.40
2019-05-06T15:18:38.886Z,11.60
2019-05-06T15:21:33.745Z,11.50
2019-05-06T15:23:48.029Z,11.60
2019-05-06T15:26:26.172Z,11.70
2019-05-06T15:28:59.825Z,11.80
2019-05-06T15:31:34.106Z,11.70
2019-05-06T15:34:15.230Z,11.60
2019-05-06T15:37:08.093Z,11.70
2019-05-06T15:39:43.784Z,11.60
2019-05-06T15:42:17.097Z,11.50
2019-05-06T15:44:51.417Z,11.50
2019-05-06T15:47:24.994Z,11.50
2019-05-06T15:49:58.514Z,11.40
2019-05-06T15:52:32.796Z,11.30
2019-05-06T15:55:08.292Z,11.30
2019-05-06T15:57:43.467Z,11.20
2019-05-06T16:00:22.302Z,11.30
2019-05-06T16:02:55.214Z,11.20
2019-05-06T16:05:30.799Z,11.20
2019-05-06T16:08:04.116Z,11.20
2019-05-06T16:10:52.055Z,11.30
2019-05-06T16:13:14.889Z,11.20
2019-05-06T16:15:48.564Z,11.10
2019-05-06T16:18:23.459Z,11.20
2019-05-06T16:20:57.650Z,11.10
2019-05-06T16:23:36.038Z,11.10
2019-05-06T16:26:12.235Z,11.10
2019-05-06T16:28:45.289Z,11.10
2019-05-06T16:31:18.959Z,11.10
2019-05-06T16:33:52.711Z,11.10
2019-05-06T16:36:26.299Z,11.10
2019-05-06T16:38:59.939Z,11.10
2019-05-06T16:41:33.498Z,11.10
2019-05-06T16:44:08.238Z,11.20
2019-05-06T16:46:42.752Z,11.10
2019-05-06T16:49:16.646Z,11.10
2019-05-06T16:51:52.524Z,11.10
2019-05-06T16:54:26.902Z,11.10
2019-05-06T16:57:17.668Z,11.10
2019-05-06T16:59:52.243Z,11.00
2019-05-06T17:02:27.511Z,11.00
2019-05-06T17:05:03.584Z,11.00
2019-05-06T17:07:37.229Z,10.90
2019-05-06T17:10:12.251Z,10.80
2019-05-06T17:12:45.813Z,10.70
2019-05-06T17:15:19.487Z,10.80
2019-05-06T17:17:53.290Z,10.70
2019-05-06T17:20:26.964Z,10.70
2019-05-06T17:23:02.646Z,10.70
2019-05-06T17:25:35.931Z,10.60
2019-05-06T17:28:27.508Z,10.50
2019-05-06T17:31:05.444Z,10.50
2019-05-06T17:33:43.650Z,10.50
2019-05-06T17:36:19.026Z,10.40
2019-05-06T17:38:54.356Z,10.40
2019-05-06T17:41:42.459Z,10.30
2019-05-06T17:44:03.299Z,10.40
2019-05-06T17:46:55.006Z,10.30
2019-05-06T17:49:30.446Z,10.30
2019-05-06T17:52:11.806Z,10.30
2019-05-06T17:54:45.411Z,10.30
2019-05-06T17:57:19.096Z,10.30
2019-05-06T17:59:52.991Z,10.20
2019-05-06T18:02:28.272Z,10.20
2019-05-06T18:05:02.827Z,10.10
2019-05-06T18:07:37.949Z,10.20
2019-05-06T18:10:12.139Z,10.10
2019-05-06T18:12:45.902Z,10.10
2019-05-06T18:15:19.542Z,10.10
2019-05-06T18:17:53.357Z,10.00
2019-05-06T18:20:27.337Z,10.00
2019-05-06T18:23:02.117Z,10.00
2019-05-06T18:25:35.950Z,9.90
2019-05-06T18:28:12.112Z,9.90
2019-05-06T18:30:47.346Z,9.90
2019-05-06T18:33:22.562Z,9.70
2019-05-06T18:35:56.068Z,9.80
2019-05-06T18:38:29.676Z,9.70
2019-05-06T18:41:03.205Z,9.70
2019-05-06T18:43:36.897Z,9.70
2019-05-06T18:46:12.179Z,9.70
2019-05-06T18:48:45.968Z,9.70
2019-05-06T18:51:19.583Z,9.70
2019-05-06T18:53:53.087Z,9.60
2019-05-06T18:56:26.613Z,9.70
2019-05-06T18:59:02.890Z,9.60
2019-05-06T19:01:36.579Z,9.50
2019-05-06T19:04:22.584Z,9.50
2019-05-06T19:07:09.360Z,9.50
2019-05-06T19:09:39.884Z,9.50
2019-05-06T19:12:28.874Z,9.50
2019-05-06T19:14:49.595Z,9.50
2019-05-06T19:17:23.301Z,9.40
2019-05-06T19:19:56.907Z,9.30
2019-05-06T19:22:32.490Z,9.30
2019-05-06T19:25:06.210Z,9.30
2019-05-06T19:27:41.544Z,9.30
2019-05-06T19:30:16.129Z,9.30
2019-05-06T19:32:50.419Z,9.30
2019-05-06T19:35:24.092Z,9.30
2019-05-06T19:37:57.720Z,9.20
2019-05-06T19:40:32.267Z,9.20
2019-05-06T19:43:07.261Z,9.20
2019-05-06T19:45:42.270Z,9.20
2019-05-06T19:48:15.925Z,9.20
2019-05-06T19:50:52.109Z,9.20
2019-05-06T19:53:25.058Z,9.20
2019-05-06T19:55:59.583Z,9.10
2019-05-06T19:58:34.019Z,9.10
2019-05-06T20:01:07.854Z,9.00
2019-05-06T20:03:41.451Z,9.00
2019-05-06T20:06:32.925Z,9.00
2019-05-06T20:09:26.732Z,9.00
2019-05-06T20:12:02.809Z,9.00
2019-05-06T20:14:37.658Z,9.00
2019-05-06T20:17:12.968Z,8.90
2019-05-06T20:19:46.723Z,8.90
2019-05-06T20:22:20.350Z,8.80
2019-05-06T20:24:53.947Z,8.90
2019-05-06T20:27:28.044Z,8.90
2019-05-06T20:30:03.365Z,9.00
2019-05-06T20:32:38.507Z,9.00
2019-05-06T20:35:13.086Z,8.90
2019-05-06T20:37:46.752Z,8.90
2019-05-06T20:40:23.021Z,8.90
2019-05-06T20:42:56.081Z,8.80
2019-05-06T20:45:33.203Z,8.80
2019-05-06T20:48:05.964Z,8.80
2019-05-06T20:50:39.983Z,8.90
2019-05-06T20:53:14.028Z,8.90
2019-05-06T20:55:47.695Z,8.90
2019-05-06T20:58:22.954Z,9.00
2019-05-06T21:00:56.859Z,8.90
2019-05-06T21:03:32.660Z,9.00
2019-05-06T21:06:05.827Z,9.00
2019-05-06T21:08:39.360Z,8.90
2019-05-06T21:11:25.813Z,8.90
2019-05-06T21:13:48.431Z,8.80
2019-05-06T21:16:35.213Z,8.80
2019-05-06T21:19:14.461Z,8.70
2019-05-06T21:21:48.162Z,8.70
2019-05-06T21:24:22.588Z,8.70
2019-05-06T21:26:56.401Z,8.70
2019-05-06T21:29:29.931Z,8.80
2019-05-06T21:32:04.109Z,8.80
2019-05-06T21:34:37.664Z,8.70
2019-05-06T21:37:12.271Z,8.80
2019-05-06T21:39:45.945Z,8.70
2019-05-06T21:42:19.592Z,8.60
2019-05-06T21:45:16.931Z,8.60
2019-05-06T21:47:52.989Z,8.60
2019-05-06T21:50:26.698Z,8.60
2019-05-06T21:53:02.534Z,8.50
2019-05-06T21:55:37.016Z,8.50
2019-05-06T21:58:12.399Z,8.50
2019-05-06T22:00:47.436Z,8.50
2019-05-06T22:03:22.964Z,8.60
2019-05-06T22:05:56.398Z,8.60
2019-05-06T22:08:32.822Z,8.60
2019-05-06T22:11:07.363Z,8.40
2019-05-06T22:13:42.540Z,8.40
2019-05-06T22:16:16.452Z,8.30
2019-05-06T22:18:52.700Z,8.30
2019-05-06T22:21:26.017Z,8.30
2019-05-06T22:24:04.674Z,8.30
2019-05-06T22:26:38.594Z,8.20
2019-05-06T22:29:12.787Z,8.20
2019-05-06T22:31:46.516Z,8.30
2019-05-06T22:34:22.097Z,8.10
2019-05-06T22:36:55.347Z,8.10
2019-05-06T22:39:29.027Z,8.10
2019-05-06T22:42:02.569Z,8.10
2019-05-06T22:44:36.253Z,8.10
2019-05-06T22:47:11.689Z,8.00
2019-05-06T22:49:45.148Z,8.00
2019-05-06T22:52:18.697Z,8.00
2019-05-06T22:54:52.793Z,7.90
2019-05-06T22:57:26.415Z,7.80
2019-05-06T23:00:00.124Z,7.70
2019-05-06T23:02:35.716Z,7.70
2019-05-06T23:05:12.245Z,7.60
2019-05-06T23:07:46.819Z,7.60
2019-05-06T23:10:24.311Z,7.60
2019-05-06T23:12:55.599Z,7.60
2019-05-06T23:15:33.972Z,7.50
2019-05-06T23:18:07.013Z,7.50
2019-05-06T23:20:42.910Z,7.50
2019-05-06T23:23:16.382Z,7.40
2019-05-06T23:25:52.509Z,7.30
2019-05-06T23:28:26.226Z,7.20
2019-05-06T23:31:01.888Z,7.10
2019-05-06T23:33:35.179Z,7.20
2019-05-06T23:36:08.723Z,7.10
2019-05-06T23:39:38.606Z,7.10
2019-05-06T23:43:06.629Z,7.00
2019-05-06T23:46:34.328Z,6.90
2019-05-06T23:50:03.642Z,6.80
2019-05-06T23:53:32.754Z,6.90
2019-05-06T23:56:43.521Z,6.50
2019-05-06T23:59:18.953Z,6.60
